sensor_id;sensor_type;location;lat;lon;timestamp;P1;durP1;ratioP1;P2;durP2;ratioP2
17261;SDS011;9873;52.236;21.002;2022-07-29T00:04:41;6.78;;;2.42;;
17261;SDS011;9873;52.236;21.002;2022-07-29T00:14:43;5.70;;;2.80;;
17261;SDS011;9873;52.236;21.002;2022-07-29T00:24:51;5.43;;;2.50;;
17261;SDS011;9873;52.236;21.002;2022-07-29T00:34:58;3.88;;;2.80;;
17261;SDS011;9873;52.236;21.002;2022-07-29T00:45:20;5.72;;;2.83;;
17261;SDS011;9873;52.236;21.002;2022-07-29T00:55:26;9.13;;;2.70;;
17261;SDS011;9873;52.236;21.002;2022-07-29T01:05:29;4.10;;;2.40;;
17261;SDS011;9873;52.236;21.002;2022-07-29T01:15:54;3.92;;;1.88;;
17261;SDS011;9873;52.236;21.002;2022-07-29T01:36:28;5.47;;;2.67;;
17261;SDS011;9873;52.236;21.002;2022-07-29T01:46:36;5.68;;;2.42;;
17261;SDS011;9873;52.236;21.002;2022-07-29T01:56:40;3.05;;;2.10;;
17261;SDS011;9873;52.236;21.002;2022-07-29T02:06:47;4.63;;;2.35;;
17261;SDS011;9873;52.236;21.002;2022-07-29T02:16:52;4.18;;;2.45;;
17261;SDS011;9873;52.236;21.002;2022-07-29T02:27:00;4.68;;;2.33;;
17261;SDS011;9873;52.236;21.002;2022-07-29T02:37:07;7.78;;;2.75;;
17261;SDS011;9873;52.236;21.002;2022-07-29T02:47:16;4.25;;;2.50;;
17261;SDS011;9873;52.236;21.002;2022-07-29T02:57:28;3.30;;;2.28;;
17261;SDS011;9873;52.236;21.002;2022-07-29T03:07:28;3.67;;;2.30;;
17261;SDS011;9873;52.236;21.002;2022-07-29T03:17:32;4.60;;;2.58;;
17261;SDS011;9873;52.236;21.002;2022-07-29T03:27:35;3.45;;;2.00;;
17261;SDS011;9873;52.236;21.002;2022-07-29T03:37:37;3.13;;;2.35;;
17261;SDS011;9873;52.236;21.002;2022-07-29T03:47:40;3.65;;;2.20;;
17261;SDS011;9873;52.236;21.002;2022-07-29T03:57:54;3.30;;;2.13;;
17261;SDS011;9873;52.236;21.002;2022-07-29T04:08:01;2.92;;;2.25;;
17261;SDS011;9873;52.236;21.002;2022-07-29T04:18:04;3.17;;;2.00;;
17261;SDS011;9873;52.236;21.002;2022-07-29T04:28:07;2.80;;;1.90;;
17261;SDS011;9873;52.236;21.002;2022-07-29T04:38:09;4.15;;;2.05;;
17261;SDS011;9873;52.236;21.002;2022-07-29T04:48:17;4.18;;;2.10;;
17261;SDS011;9873;52.236;21.002;2022-07-29T04:58:24;1.63;;;1.52;;
17261;SDS011;9873;52.236;21.002;2022-07-29T05:08:28;2.80;;;1.80;;
17261;SDS011;9873;52.236;21.002;2022-07-29T05:18:31;3.67;;;1.50;;
17261;SDS011;9873;52.236;21.002;2022-07-29T05:28:33;2.88;;;2.30;;
17261;SDS011;9873;52.236;21.002;2022-07-29T05:38:36;2.35;;;1.48;;
17261;SDS011;9873;52.236;21.002;2022-07-29T05:48:39;2.65;;;1.20;;
17261;SDS011;9873;52.236;21.002;2022-07-29T05:58:43;4.07;;;1.40;;
17261;SDS011;9873;52.236;21.002;2022-07-29T06:08:45;2.72;;;1.25;;
17261;SDS011;9873;52.236;21.002;2022-07-29T06:18:47;2.50;;;1.38;;
17261;SDS011;9873;52.236;21.002;2022-07-29T06:28:50;1.85;;;1.02;;
17261;SDS011;9873;52.236;21.002;2022-07-29T06:38:52;2.83;;;1.13;;
17261;SDS011;9873;52.236;21.002;2022-07-29T06:48:54;3.20;;;1.23;;
17261;SDS011;9873;52.236;21.002;2022-07-29T06:58:56;5.68;;;2.00;;
17261;SDS011;9873;52.236;21.002;2022-07-29T07:08:58;4.43;;;1.00;;
17261;SDS011;9873;52.236;21.002;2022-07-29T07:19:00;1.83;;;1.00;;
17261;SDS011;9873;52.236;21.002;2022-07-29T07:29:05;1.67;;;1.10;;
17261;SDS011;9873;52.236;21.002;2022-07-29T07:39:10;1.58;;;1.10;;
17261;SDS011;9873;52.236;21.002;2022-07-29T07:49:12;1.90;;;1.33;;
17261;SDS011;9873;52.236;21.002;2022-07-29T07:59:16;2.70;;;1.35;;
17261;SDS011;9873;52.236;21.002;2022-07-29T08:09:21;2.20;;;1.02;;
17261;SDS011;9873;52.236;21.002;2022-07-29T08:19:30;2.42;;;1.00;;
17261;SDS011;9873;52.236;21.002;2022-07-29T08:29:32;1.45;;;1.00;;
17261;SDS011;9873;52.236;21.002;2022-07-29T08:39:40;2.25;;;1.00;;
17261;SDS011;9873;52.236;21.002;2022-07-29T08:49:42;3.85;;;1.10;;
17261;SDS011;9873;52.236;21.002;2022-07-29T08:59:48;12.43;;;1.48;;
17261;SDS011;9873;52.236;21.002;2022-07-29T09:09:57;2.90;;;1.10;;
17261;SDS011;9873;52.236;21.002;2022-07-29T09:20:15;1.52;;;1.02;;
17261;SDS011;9873;52.236;21.002;2022-07-29T09:30:21;1.70;;;0.70;;
17261;SDS011;9873;52.236;21.002;2022-07-29T09:40:34;2.20;;;0.80;;
17261;SDS011;9873;52.236;21.002;2022-07-29T09:50:39;1.45;;;0.90;;
17261;SDS011;9873;52.236;21.002;2022-07-29T10:00:43;3.45;;;0.70;;
17261;SDS011;9873;52.236;21.002;2022-07-29T10:10:47;1.90;;;1.00;;
17261;SDS011;9873;52.236;21.002;2022-07-29T10:20:49;1.50;;;1.00;;
17261;SDS011;9873;52.236;21.002;2022-07-29T10:30:52;2.22;;;0.93;;
17261;SDS011;9873;52.236;21.002;2022-07-29T11:01:58;1.67;;;1.23;;
17261;SDS011;9873;52.236;21.002;2022-07-29T11:22:39;2.78;;;1.00;;
17261;SDS011;9873;52.236;21.002;2022-07-29T11:32:46;1.40;;;0.85;;
17261;SDS011;9873;52.236;21.002;2022-07-29T11:42:51;1.52;;;0.90;;
17261;SDS011;9873;52.236;21.002;2022-07-29T11:52:57;0.82;;;0.73;;
17261;SDS011;9873;52.236;21.002;2022-07-29T12:03:01;1.25;;;0.80;;
17261;SDS011;9873;52.236;21.002;2022-07-29T12:13:10;2.75;;;0.98;;
17261;SDS011;9873;52.236;21.002;2022-07-29T12:23:14;1.45;;;0.70;;
17261;SDS011;9873;52.236;21.002;2022-07-29T12:33:23;1.85;;;1.30;;
17261;SDS011;9873;52.236;21.002;2022-07-29T12:43:26;1.08;;;0.70;;
17261;SDS011;9873;52.236;21.002;2022-07-29T12:53:28;2.45;;;0.80;;
17261;SDS011;9873;52.236;21.002;2022-07-29T13:03:44;2.55;;;0.80;;
17261;SDS011;9873;52.236;21.002;2022-07-29T13:14:00;2.55;;;0.90;;
17261;SDS011;9873;52.236;21.002;2022-07-29T13:24:06;4.85;;;0.95;;
17261;SDS011;9873;52.236;21.002;2022-07-29T13:34:12;1.63;;;0.80;;
17261;SDS011;9873;52.236;21.002;2022-07-29T13:44:16;3.25;;;0.90;;
17261;SDS011;9873;52.236;21.002;2022-07-29T13:54:19;1.42;;;0.80;;
17261;SDS011;9873;52.236;21.002;2022-07-29T14:04:22;3.20;;;0.93;;
17261;SDS011;9873;52.236;21.002;2022-07-29T14:14:27;3.20;;;0.90;;
17261;SDS011;9873;52.236;21.002;2022-07-29T14:24:33;1.52;;;1.00;;
17261;SDS011;9873;52.236;21.002;2022-07-29T14:34:40;0.95;;;0.75;;
17261;SDS011;9873;52.236;21.002;2022-07-29T14:44:44;1.10;;;0.75;;
17261;SDS011;9873;52.236;21.002;2022-07-29T14:54:48;1.10;;;0.70;;
17261;SDS011;9873;52.236;21.002;2022-07-29T15:04:49;2.00;;;0.73;;
17261;SDS011;9873;52.236;21.002;2022-07-29T15:14:52;1.58;;;0.70;;
17261;SDS011;9873;52.236;21.002;2022-07-29T15:24:54;1.20;;;0.68;;
17261;SDS011;9873;52.236;21.002;2022-07-29T15:35:03;1.40;;;0.90;;
17261;SDS011;9873;52.236;21.002;2022-07-29T15:45:06;2.42;;;0.80;;
17261;SDS011;9873;52.236;21.002;2022-07-29T15:55:11;2.50;;;0.93;;
17261;SDS011;9873;52.236;21.002;2022-07-29T16:05:13;3.08;;;0.90;;
17261;SDS011;9873;52.236;21.002;2022-07-29T16:15:18;1.02;;;0.70;;
17261;SDS011;9873;52.236;21.002;2022-07-29T16:25:20;2.38;;;1.35;;
17261;SDS011;9873;52.236;21.002;2022-07-29T16:35:43;2.17;;;0.82;;
17261;SDS011;9873;52.236;21.002;2022-07-29T16:45:45;3.17;;;0.75;;
17261;SDS011;9873;52.236;21.002;2022-07-29T16:55:48;0.80;;;0.75;;
17261;SDS011;9873;52.236;21.002;2022-07-29T17:05:51;1.45;;;0.80;;
17261;SDS011;9873;52.236;21.002;2022-07-29T17:15:54;1.73;;;0.73;;
17261;SDS011;9873;52.236;21.002;2022-07-29T17:26:01;3.03;;;0.95;;
17261;SDS011;9873;52.236;21.002;2022-07-29T17:36:09;3.75;;;0.80;;
17261;SDS011;9873;52.236;21.002;2022-07-29T17:46:27;1.50;;;0.82;;
17261;SDS011;9873;52.236;21.002;2022-07-29T17:56:34;1.02;;;0.93;;
17261;SDS011;9873;52.236;21.002;2022-07-29T18:06:38;2.85;;;0.98;;
17261;SDS011;9873;52.236;21.002;2022-07-29T18:16:43;2.58;;;0.88;;
17261;SDS011;9873;52.236;21.002;2022-07-29T18:26:48;2.65;;;0.88;;
17261;SDS011;9873;52.236;21.002;2022-07-29T18:36:50;0.80;;;0.80;;
17261;SDS011;9873;52.236;21.002;2022-07-29T18:46:57;2.58;;;1.13;;
17261;SDS011;9873;52.236;21.002;2022-07-29T18:57:00;2.60;;;0.88;;
17261;SDS011;9873;52.236;21.002;2022-07-29T19:07:22;0.93;;;0.77;;
17261;SDS011;9873;52.236;21.002;2022-07-29T19:17:27;3.95;;;1.50;;
17261;SDS011;9873;52.236;21.002;2022-07-29T19:27:30;4.55;;;1.45;;
17261;SDS011;9873;52.236;21.002;2022-07-29T19:37:32;2.38;;;1.20;;
17261;SDS011;9873;52.236;21.002;2022-07-29T19:47:38;2.33;;;1.05;;
17261;SDS011;9873;52.236;21.002;2022-07-29T19:57:41;2.25;;;1.17;;
17261;SDS011;9873;52.236;21.002;2022-07-29T20:07:48;2.78;;;1.38;;
17261;SDS011;9873;52.236;21.002;2022-07-29T20:17:50;1.95;;;1.38;;
17261;SDS011;9873;52.236;21.002;2022-07-29T20:28:00;1.90;;;1.38;;
17261;SDS011;9873;52.236;21.002;2022-07-29T20:38:02;1.88;;;0.85;;
17261;SDS011;9873;52.236;21.002;2022-07-29T20:48:07;1.63;;;1.35;;
17261;SDS011;9873;52.236;21.002;2022-07-29T20:58:13;2.00;;;1.13;;
17261;SDS011;9873;52.236;21.002;2022-07-29T21:08:21;1.60;;;1.08;;
17261;SDS011;9873;52.236;21.002;2022-07-29T21:18:25;1.00;;;0.88;;
17261;SDS011;9873;52.236;21.002;2022-07-29T21:28:28;2.00;;;1.02;;
17261;SDS011;9873;52.236;21.002;2022-07-29T21:38:36;2.95;;;1.35;;
17261;SDS011;9873;52.236;21.002;2022-07-29T21:48:40;7.80;;;2.47;;
17261;SDS011;9873;52.236;21.002;2022-07-29T21:58:46;1.67;;;1.20;;
17261;SDS011;9873;52.236;21.002;2022-07-29T22:08:48;2.00;;;1.13;;
17261;SDS011;9873;52.236;21.002;2022-07-29T22:18:53;1.33;;;1.10;;
17261;SDS011;9873;52.236;21.002;2022-07-29T22:28:55;2.10;;;1.45;;
17261;SDS011;9873;52.236;21.002;2022-07-29T22:39:01;2.17;;;1.33;;
17261;SDS011;9873;52.236;21.002;2022-07-29T22:49:08;1.42;;;1.33;;
17261;SDS011;9873;52.236;21.002;2022-07-29T22:59:10;2.67;;;1.42;;
17261;SDS011;9873;52.236;21.002;2022-07-29T23:09:12;1.83;;;1.08;;
17261;SDS011;9873;52.236;21.002;2022-07-29T23:19:14;3.13;;;1.58;;
17261;SDS011;9873;52.236;21.002;2022-07-29T23:29:21;3.38;;;1.80;;
17261;SDS011;9873;52.236;21.002;2022-07-29T23:39:25;2.10;;;1.08;;
17261;SDS011;9873;52.236;21.002;2022-07-29T23:49:29;1.70;;;1.30;;
17261;SDS011;9873;52.236;21.002;2022-07-29T23:59:34;4.05;;;1.35;;
